createdAt,value
2022-12-06T00:00:06.302Z,99.99
2022-12-06T00:01:06.294Z,99.99
2022-12-06T00:02:06.325Z,99.99
2022-12-06T00:03:06.354Z,99.99
2022-12-06T00:04:06.255Z,99.99
2022-12-06T00:05:06.237Z,99.99
2022-12-06T00:06:06.233Z,99.99
2022-12-06T00:07:06.209Z,99.99
2022-12-06T00:08:06.263Z,99.99
2022-12-06T00:09:06.184Z,99.99
2022-12-06T00:10:06.171Z,99.99
2022-12-06T00:11:06.158Z,99.99
2022-12-06T00:12:06.145Z,99.99
2022-12-06T00:13:06.142Z,99.99
2022-12-06T00:14:06.124Z,99.99
2022-12-06T00:15:06.116Z,99.99
2022-12-06T00:16:06.194Z,99.99
2022-12-06T00:17:06.081Z,99.99
2022-12-06T00:18:06.074Z,99.99
2022-12-06T00:19:06.055Z,99.99
2022-12-06T00:20:06.042Z,99.99
2022-12-06T00:21:06.027Z,99.99
2022-12-06T00:22:06.017Z,99.99
2022-12-06T00:23:06.003Z,99.99
2022-12-06T00:24:06.018Z,99.99
2022-12-06T00:25:05.979Z,99.99
2022-12-06T00:26:05.966Z,99.99
2022-12-06T00:27:05.951Z,99.99
2022-12-06T00:28:05.937Z,99.99
2022-12-06T00:29:05.933Z,99.99
2022-12-06T00:30:05.911Z,99.99
2022-12-06T00:31:05.905Z,99.99
2022-12-06T00:32:05.965Z,99.99
2022-12-06T00:33:05.878Z,99.99
2022-12-06T00:34:05.859Z,99.99
2022-12-06T00:35:05.858Z,99.99
2022-12-06T00:36:05.834Z,99.99
2022-12-06T00:37:05.833Z,99.99
2022-12-06T00:38:05.816Z,99.99
2022-12-06T00:39:05.802Z,99.99
2022-12-06T00:40:05.815Z,99.99
2022-12-06T00:41:05.773Z,99.99
2022-12-06T00:42:05.766Z,99.99
2022-12-06T00:43:05.748Z,99.99
2022-12-06T00:44:05.738Z,99.99
2022-12-06T00:45:05.716Z,99.99
2022-12-06T00:46:05.778Z,99.99
2022-12-06T00:47:05.689Z,99.99
2022-12-06T00:48:05.685Z,99.99
2022-12-06T00:49:05.676Z,99.99
2022-12-06T00:50:05.661Z,99.99
2022-12-06T00:51:05.646Z,99.99
2022-12-06T00:52:05.633Z,99.99
2022-12-06T00:53:05.624Z,99.99
2022-12-06T00:54:05.608Z,99.99
2022-12-06T00:55:05.595Z,99.99
2022-12-06T00:56:05.603Z,99.99
2022-12-06T00:57:05.564Z,99.99
2022-12-06T00:58:05.557Z,99.99
2022-12-06T00:59:05.540Z,99.99
2022-12-06T01:00:05.530Z,99.99
2022-12-06T01:01:05.603Z,99.99
2022-12-06T01:02:05.507Z,99.99
2022-12-06T01:03:05.550Z,99.99
2022-12-06T01:04:05.477Z,99.99
2022-12-06T01:05:05.466Z,99.99
2022-12-06T01:06:05.453Z,99.99
2022-12-06T01:07:05.444Z,99.99
2022-12-06T01:08:05.564Z,99.99
2022-12-06T01:09:05.417Z,99.99
2022-12-06T01:10:05.395Z,99.99
2022-12-06T01:11:05.388Z,99.99
2022-12-06T01:12:05.394Z,99.99
2022-12-06T01:13:05.364Z,99.99
2022-12-06T01:14:05.344Z,99.99
2022-12-06T01:15:05.337Z,99.99
2022-12-06T01:16:05.325Z,99.99
2022-12-06T01:17:05.327Z,99.99
2022-12-06T01:18:05.290Z,99.99
2022-12-06T01:19:05.282Z,99.99
2022-12-06T01:20:05.272Z,99.99
2022-12-06T01:21:05.250Z,99.99
2022-12-06T01:22:05.248Z,99.99
2022-12-06T01:23:05.226Z,99.99
2022-12-06T01:24:05.225Z,99.99
2022-12-06T01:25:05.206Z,99.99
2022-12-06T01:26:05.186Z,99.99
2022-12-06T01:27:05.177Z,99.99
2022-12-06T01:28:05.202Z,99.99
2022-12-06T01:29:05.156Z,99.99
2022-12-06T01:30:05.142Z,99.99
2022-12-06T01:31:05.154Z,99.99
2022-12-06T01:32:05.115Z,99.99
2022-12-06T01:33:05.099Z,99.99
2022-12-06T01:34:05.084Z,99.99
2022-12-06T01:35:05.071Z,99.99
2022-12-06T01:36:05.058Z,99.99
2022-12-06T01:37:05.048Z,99.99
2022-12-06T01:38:06.329Z,99.99
2022-12-06T01:39:05.025Z,99.99
2022-12-06T01:40:05.013Z,99.99
2022-12-06T01:41:05.002Z,99.99
2022-12-06T01:42:04.990Z,99.99
2022-12-06T01:43:04.980Z,99.99
2022-12-06T01:44:04.983Z,99.99
2022-12-06T01:45:04.950Z,99.99
2022-12-06T01:46:04.955Z,99.99
2022-12-06T01:47:04.916Z,99.99
2022-12-06T01:48:04.905Z,99.99
2022-12-06T01:49:04.890Z,99.99
2022-12-06T01:50:04.887Z,99.99
2022-12-06T01:51:04.872Z,99.99
2022-12-06T01:52:04.858Z,99.99
2022-12-06T01:53:04.845Z,99.99
2022-12-06T01:54:04.836Z,99.99
2022-12-06T01:55:04.814Z,99.99
2022-12-06T01:56:04.807Z,99.99
2022-12-06T01:57:04.793Z,99.99
2022-12-06T01:58:04.782Z,99.99
2022-12-06T01:59:04.761Z,99.99
2022-12-06T02:00:04.782Z,99.99
2022-12-06T02:01:04.777Z,99.99
2022-12-06T02:02:04.783Z,99.99
2022-12-06T02:03:04.796Z,99.99
2022-12-06T02:04:06.106Z,99.99
2022-12-06T02:05:04.696Z,99.99
2022-12-06T02:06:04.671Z,99.99
2022-12-06T02:07:04.668Z,99.99
2022-12-06T02:08:04.717Z,99.99
2022-12-06T02:09:04.642Z,99.99
2022-12-06T02:10:04.707Z,99.99
2022-12-06T02:11:04.613Z,99.99
2022-12-06T02:12:04.595Z,99.99
2022-12-06T02:13:04.614Z,99.99
2022-12-06T02:14:04.579Z,99.99
2022-12-06T02:15:04.560Z,99.99
2022-12-06T02:16:04.580Z,99.99
2022-12-06T02:17:04.665Z,99.99
2022-12-06T02:18:04.523Z,99.99
2022-12-06T02:19:04.507Z,99.99
2022-12-06T02:20:04.500Z,99.99
2022-12-06T02:21:04.480Z,99.99
2022-12-06T02:22:04.514Z,99.99
2022-12-06T02:23:04.477Z,99.99
2022-12-06T02:24:04.452Z,99.99
2022-12-06T02:25:04.464Z,99.99
2022-12-06T02:26:04.449Z,99.99
2022-12-06T02:27:04.404Z,99.99
2022-12-06T02:28:04.391Z,99.99
2022-12-06T02:29:04.381Z,99.99
2022-12-06T02:30:04.375Z,99.99
2022-12-06T02:31:04.635Z,99.99
2022-12-06T02:32:04.368Z,99.99
2022-12-06T02:33:04.331Z,99.99
2022-12-06T02:34:04.319Z,99.99
2022-12-06T02:35:04.308Z,99.99
2022-12-06T02:36:04.299Z,99.99
2022-12-06T02:37:04.274Z,99.99
2022-12-06T02:38:06.673Z,99.99
2022-12-06T02:39:04.253Z,99.99
2022-12-06T02:40:04.241Z,99.99
2022-12-06T02:41:04.231Z,99.99
2022-12-06T02:42:04.213Z,99.99
2022-12-06T02:43:04.196Z,99.99
2022-12-06T02:44:04.200Z,99.99
2022-12-06T02:45:04.174Z,99.99
2022-12-06T02:46:04.201Z,99.99
2022-12-06T02:47:04.153Z,99.99
2022-12-06T02:48:04.158Z,99.99
2022-12-06T02:49:04.122Z,99.99
2022-12-06T02:50:04.109Z,99.99
2022-12-06T02:51:04.096Z,99.99
2022-12-06T02:52:04.083Z,99.99
2022-12-06T02:53:04.079Z,99.99
2022-12-06T02:54:04.065Z,99.99
2022-12-06T02:55:04.051Z,99.99
2022-12-06T02:56:04.035Z,99.99
2022-12-06T02:57:04.031Z,99.99
2022-12-06T02:58:04.018Z,99.99
2022-12-06T02:59:04.012Z,99.99
2022-12-06T03:00:03.985Z,99.99
2022-12-06T03:01:04.056Z,99.99
2022-12-06T03:02:04.079Z,99.99
2022-12-06T03:03:04.037Z,99.99
2022-12-06T03:04:03.955Z,99.99
2022-12-06T03:05:03.923Z,99.99
2022-12-06T03:06:03.910Z,99.99
2022-12-06T03:07:03.901Z,99.99
2022-12-06T03:08:03.962Z,99.99
2022-12-06T03:09:03.875Z,99.99
2022-12-06T03:10:04.143Z,99.99
2022-12-06T03:11:03.849Z,99.99
2022-12-06T03:12:03.829Z,99.99
2022-12-06T03:13:03.813Z,99.99
2022-12-06T03:14:03.808Z,99.99
2022-12-06T03:15:03.795Z,99.99
2022-12-06T03:16:03.838Z,99.99
2022-12-06T03:17:03.768Z,99.99
2022-12-06T03:18:03.753Z,99.99
2022-12-06T03:19:03.746Z,99.99
2022-12-06T03:20:03.752Z,99.99
2022-12-06T03:21:03.721Z,99.99
2022-12-06T03:22:03.701Z,99.99
2022-12-06T03:23:03.686Z,99.99
2022-12-06T03:24:03.681Z,99.99
2022-12-06T03:25:03.674Z,99.99
2022-12-06T03:26:03.651Z,99.99
2022-12-06T03:27:03.650Z,99.99
2022-12-06T03:28:03.628Z,99.99
2022-12-06T03:29:03.616Z,99.99
2022-12-06T03:30:03.599Z,99.99
2022-12-06T03:31:03.670Z,99.99
2022-12-06T03:32:03.570Z,99.99
2022-12-06T03:33:03.568Z,99.99
2022-12-06T03:34:03.551Z,99.99
2022-12-06T03:35:03.544Z,99.99
2022-12-06T03:36:03.549Z,99.99
2022-12-06T03:37:03.516Z,99.99
2022-12-06T03:38:03.504Z,99.99
2022-12-06T03:39:03.493Z,99.99
2022-12-06T03:40:03.536Z,99.99
2022-12-06T03:41:03.464Z,99.99
2022-12-06T03:42:03.444Z,99.99
2022-12-06T03:43:03.448Z,99.99
2022-12-06T03:44:03.427Z,99.99
2022-12-06T03:45:03.415Z,99.99
2022-12-06T03:46:03.544Z,99.99
2022-12-06T03:47:03.435Z,99.99
2022-12-06T03:48:03.382Z,99.99
2022-12-06T03:49:03.354Z,99.99
2022-12-06T03:50:03.469Z,99.99
2022-12-06T03:51:03.329Z,99.99
2022-12-06T03:52:03.343Z,99.99
2022-12-06T03:53:03.313Z,99.99
2022-12-06T03:54:03.290Z,99.99
2022-12-06T03:55:03.294Z,99.99
2022-12-06T03:56:03.268Z,99.99
2022-12-06T03:57:03.263Z,99.99
2022-12-06T03:58:03.239Z,99.99
2022-12-06T03:59:03.226Z,99.99
2022-12-06T04:00:03.223Z,99.99
2022-12-06T04:01:03.209Z,99.99
2022-12-06T04:02:03.241Z,99.99
2022-12-06T04:03:03.178Z,99.99
2022-12-06T04:04:03.220Z,99.99
2022-12-06T04:05:03.167Z,99.99
2022-12-06T04:06:03.136Z,99.99
2022-12-06T04:07:03.124Z,99.99
2022-12-06T04:08:03.201Z,99.99
2022-12-06T04:09:03.100Z,99.99
2022-12-06T04:10:03.617Z,99.99
2022-12-06T04:11:03.074Z,99.99
2022-12-06T04:12:03.061Z,99.99
2022-12-06T04:13:03.059Z,99.99
2022-12-06T04:14:03.041Z,99.99
2022-12-06T04:15:03.028Z,99.99
2022-12-06T04:16:03.069Z,99.99
2022-12-06T04:17:03.007Z,99.99
2022-12-06T04:18:02.993Z,99.99
2022-12-06T04:19:02.976Z,99.99
2022-12-06T04:20:03.221Z,99.99
2022-12-06T04:21:02.945Z,99.99
2022-12-06T04:22:02.949Z,99.99
2022-12-06T04:23:02.918Z,99.99
2022-12-06T04:24:02.941Z,99.99
2022-12-06T04:25:02.893Z,99.99
2022-12-06T04:26:02.888Z,99.99
2022-12-06T04:27:02.875Z,99.99
2022-12-06T04:28:02.854Z,99.99
2022-12-06T04:29:02.848Z,99.99
2022-12-06T04:30:02.839Z,99.99
2022-12-06T04:31:02.895Z,99.99
2022-12-06T04:32:02.876Z,99.99
2022-12-06T04:33:02.791Z,99.99
2022-12-06T04:34:02.785Z,99.99
2022-12-06T04:35:02.766Z,99.99
2022-12-06T04:36:02.754Z,99.99
2022-12-06T04:37:02.752Z,99.99
2022-12-06T04:38:02.733Z,99.99
2022-12-06T04:39:02.724Z,99.99
2022-12-06T04:40:03.101Z,99.99
2022-12-06T04:41:02.694Z,99.99
2022-12-06T04:42:02.679Z,99.99
2022-12-06T04:43:02.668Z,99.99
2022-12-06T04:44:02.659Z,99.99
2022-12-06T04:45:02.645Z,99.99
2022-12-06T04:46:02.629Z,99.99
2022-12-06T04:47:02.652Z,99.99
2022-12-06T04:48:02.604Z,99.99
2022-12-06T04:49:02.589Z,99.99
2022-12-06T04:50:02.832Z,99.99
2022-12-06T04:51:02.559Z,99.99
2022-12-06T04:52:02.551Z,99.99
2022-12-06T04:53:02.543Z,99.99
2022-12-06T04:54:02.528Z,99.99
2022-12-06T04:55:02.510Z,99.99
2022-12-06T04:56:02.522Z,99.99
2022-12-06T04:57:02.492Z,99.99
2022-12-06T04:58:02.482Z,99.99
2022-12-06T04:59:02.466Z,99.99
2022-12-06T05:00:02.798Z,99.99
2022-12-06T05:01:02.544Z,99.99
2022-12-06T05:02:02.421Z,99.99
2022-12-06T05:03:02.410Z,99.99
2022-12-06T05:04:02.443Z,99.99
2022-12-06T05:05:02.382Z,99.99
2022-12-06T05:06:02.379Z,99.99
2022-12-06T05:07:02.366Z,99.99
2022-12-06T05:08:02.398Z,99.99
2022-12-06T05:09:02.341Z,99.99
2022-12-06T05:10:02.799Z,99.99
2022-12-06T05:11:02.314Z,99.99
2022-12-06T05:12:02.318Z,99.99
2022-12-06T05:13:02.283Z,99.99
2022-12-06T05:14:02.270Z,99.99
2022-12-06T05:15:02.252Z,99.99
2022-12-06T05:16:02.306Z,99.99
2022-12-06T05:17:02.228Z,99.99
2022-12-06T05:18:02.227Z,99.99
2022-12-06T05:19:02.202Z,99.99
2022-12-06T05:20:02.515Z,99.99
2022-12-06T05:21:02.173Z,99.99
2022-12-06T05:22:02.190Z,99.99
2022-12-06T05:23:02.148Z,99.99
2022-12-06T05:24:02.134Z,99.99
2022-12-06T05:25:02.128Z,99.99
2022-12-06T05:26:02.119Z,99.99
2022-12-06T05:27:02.097Z,99.99
2022-12-06T05:28:02.114Z,99.99
2022-12-06T05:29:02.073Z,99.99
2022-12-06T05:30:02.271Z,99.99
2022-12-06T05:31:02.100Z,99.99
2022-12-06T05:32:02.145Z,99.99
2022-12-06T05:33:02.020Z,99.99
2022-12-06T05:34:02.008Z,99.99
2022-12-06T05:35:02.005Z,99.99
2022-12-06T05:36:01.983Z,99.99
2022-12-06T05:37:01.976Z,99.99
2022-12-06T05:38:01.962Z,99.99
2022-12-06T05:39:01.951Z,99.99
2022-12-06T05:40:02.656Z,99.99
2022-12-06T05:41:01.925Z,99.99
2022-12-06T05:42:01.904Z,99.99
2022-12-06T05:43:01.912Z,99.99
2022-12-06T05:44:01.909Z,99.99
2022-12-06T05:45:01.869Z,99.99
2022-12-06T05:46:01.940Z,99.99
2022-12-06T05:47:01.849Z,99.99
2022-12-06T05:48:01.840Z,99.99
2022-12-06T05:49:01.816Z,99.99
2022-12-06T05:50:02.159Z,99.99
2022-12-06T05:51:01.792Z,99.99
2022-12-06T05:52:04.138Z,99.99
2022-12-06T05:53:01.774Z,99.99
2022-12-06T05:54:01.759Z,99.99
2022-12-06T05:55:01.740Z,99.99
2022-12-06T05:56:01.731Z,99.99
2022-12-06T05:57:01.724Z,99.99
2022-12-06T05:58:01.701Z,99.99
2022-12-06T05:59:01.703Z,99.99
2022-12-06T06:00:02.117Z,99.99
2022-12-06T06:01:01.689Z,99.99
2022-12-06T06:02:01.758Z,99.99
2022-12-06T06:03:01.831Z,99.99
2022-12-06T06:04:01.626Z,99.99
2022-12-06T06:05:01.614Z,99.99
2022-12-06T06:06:01.599Z,99.99
2022-12-06T06:07:01.589Z,99.99
2022-12-06T06:08:01.681Z,99.99
2022-12-06T06:09:01.566Z,99.99
2022-12-06T06:10:01.887Z,99.99
2022-12-06T06:11:01.544Z,99.99
2022-12-06T06:12:01.522Z,99.99
2022-12-06T06:13:01.515Z,99.99
2022-12-06T06:14:01.496Z,99.99
2022-12-06T06:15:01.490Z,99.99
2022-12-06T06:16:01.496Z,99.99
2022-12-06T06:17:01.504Z,99.99
2022-12-06T06:18:01.447Z,99.99
2022-12-06T06:19:01.432Z,99.99
2022-12-06T06:20:01.723Z,99.99
2022-12-06T06:21:01.406Z,99.99
2022-12-06T06:22:01.399Z,99.99
2022-12-06T06:23:01.380Z,99.99
2022-12-06T06:24:01.371Z,99.99
2022-12-06T06:25:01.361Z,99.99
2022-12-06T06:26:01.343Z,99.99
2022-12-06T06:27:01.330Z,99.99
2022-12-06T06:28:01.316Z,99.99
2022-12-06T06:29:01.302Z,99.99
2022-12-06T06:30:01.616Z,99.99
2022-12-06T06:31:01.277Z,99.99
2022-12-06T06:32:01.425Z,99.99
2022-12-06T06:33:01.257Z,99.99
2022-12-06T06:34:01.245Z,99.99
2022-12-06T06:35:01.226Z,99.99
2022-12-06T06:36:01.216Z,99.99
2022-12-06T06:37:01.199Z,99.99
2022-12-06T06:38:01.194Z,99.99
2022-12-06T06:39:01.184Z,99.99
2022-12-06T06:40:01.359Z,99.99
2022-12-06T06:41:01.148Z,99.99
2022-12-06T06:42:01.134Z,99.99
2022-12-06T06:43:01.134Z,99.99
2022-12-06T06:44:01.119Z,99.99
2022-12-06T06:45:01.104Z,99.99
2022-12-06T06:46:01.224Z,99.99
2022-12-06T06:47:01.072Z,99.99
2022-12-06T06:48:01.089Z,99.99
2022-12-06T06:49:01.048Z,99.99
2022-12-06T06:50:01.364Z,99.99
2022-12-06T06:51:01.022Z,99.99
2022-12-06T06:52:01.004Z,99.99
2022-12-06T06:53:01.002Z,99.99
2022-12-06T06:54:00.996Z,99.99
2022-12-06T06:55:00.975Z,99.99
2022-12-06T06:56:00.959Z,99.99
2022-12-06T06:57:00.946Z,99.99
2022-12-06T06:58:00.931Z,99.99
2022-12-06T06:59:00.913Z,99.99
2022-12-06T07:00:01.241Z,99.99
2022-12-06T07:01:00.920Z,99.99
2022-12-06T07:02:00.934Z,99.99
2022-12-06T07:03:00.978Z,99.99
2022-12-06T07:04:00.892Z,99.99
2022-12-06T07:05:00.840Z,99.99
2022-12-06T07:06:00.840Z,99.99
2022-12-06T07:07:00.831Z,99.99
2022-12-06T07:08:00.838Z,99.99
2022-12-06T07:09:00.794Z,99.99
2022-12-06T07:10:01.075Z,99.99
2022-12-06T07:11:00.761Z,99.99
2022-12-06T07:12:00.760Z,99.99
2022-12-06T07:13:00.749Z,99.99
2022-12-06T07:14:00.736Z,99.99
2022-12-06T07:15:00.712Z,99.99
2022-12-06T07:16:00.706Z,99.99
2022-12-06T07:17:00.742Z,99.99
2022-12-06T07:18:00.681Z,99.99
2022-12-06T07:19:04.636Z,99.99
2022-12-06T07:20:02.067Z,99.99
2022-12-06T07:21:00.635Z,99.99
2022-12-06T07:22:00.628Z,99.99
2022-12-06T07:23:00.616Z,99.99
2022-12-06T07:24:00.600Z,99.99
2022-12-06T07:25:00.603Z,99.99
2022-12-06T07:26:00.574Z,99.99
2022-12-06T07:27:00.557Z,99.99
2022-12-06T07:28:00.559Z,99.99
2022-12-06T07:29:00.546Z,99.99
2022-12-06T07:30:00.966Z,99.99
2022-12-06T07:31:00.570Z,99.99
2022-12-06T07:32:00.506Z,99.99
2022-12-06T07:33:00.490Z,99.99
2022-12-06T07:34:00.480Z,99.99
2022-12-06T07:35:00.464Z,99.99
2022-12-06T07:36:11.979Z,99.99
2022-12-06T07:37:01.461Z,99.99
2022-12-06T07:38:00.424Z,99.99
2022-12-06T07:39:00.415Z,99.99
2022-12-06T07:40:00.791Z,99.99
2022-12-06T07:41:05.029Z,99.99
2022-12-06T07:42:00.376Z,99.99
2022-12-06T07:43:00.358Z,99.99
2022-12-06T07:44:00.347Z,99.99
2022-12-06T07:45:02.404Z,99.99
2022-12-06T07:46:00.370Z,99.99
2022-12-06T07:47:00.311Z,99.99
2022-12-06T07:48:00.298Z,99.99
2022-12-06T07:49:00.279Z,99.99
2022-12-06T07:50:00.635Z,99.99
2022-12-06T07:51:00.247Z,99.99
2022-12-06T07:52:00.279Z,99.99
2022-12-06T07:53:00.223Z,99.99
2022-12-06T07:54:00.209Z,99.99
2022-12-06T07:55:00.209Z,99.99
2022-12-06T07:56:00.186Z,99.99
2022-12-06T07:57:00.180Z,99.99
2022-12-06T07:58:00.173Z,99.99
2022-12-06T07:59:00.159Z,99.99
2022-12-06T08:00:00.628Z,99.99
2022-12-06T08:01:00.235Z,99.99
2022-12-06T08:02:00.293Z,99.99
2022-12-06T08:03:00.108Z,99.99
2022-12-06T08:04:00.206Z,99.99
2022-12-06T08:05:00.085Z,99.99
2022-12-06T08:06:00.075Z,99.99
2022-12-06T08:07:00.057Z,99.99
2022-12-06T08:08:00.153Z,99.99
2022-12-06T08:09:00.025Z,99.99
2022-12-06T08:10:00.341Z,99.99
2022-12-06T08:11:00.006Z,99.99
2022-12-06T08:11:59.989Z,99.99
2022-12-06T08:12:59.976Z,99.99
2022-12-06T08:13:59.964Z,99.99
2022-12-06T08:15:00.356Z,99.99
2022-12-06T08:16:00.055Z,99.99
2022-12-06T08:16:59.911Z,99.99
2022-12-06T08:17:59.907Z,99.99
2022-12-06T08:18:59.894Z,99.99
2022-12-06T08:20:00.259Z,99.99
2022-12-06T08:20:59.867Z,99.99
2022-12-06T08:21:59.853Z,99.99
2022-12-06T08:22:59.841Z,99.99
2022-12-06T08:23:59.864Z,99.99
2022-12-06T08:24:59.822Z,99.99
2022-12-06T08:25:59.803Z,99.99
2022-12-06T08:26:59.797Z,99.99
2022-12-06T08:27:59.781Z,99.99
2022-12-06T08:28:59.768Z,99.99
2022-12-06T08:30:00.131Z,99.99
2022-12-06T08:31:03.020Z,99.99
2022-12-06T08:31:59.727Z,99.99
2022-12-06T08:32:59.719Z,99.99
2022-12-06T08:33:59.705Z,99.99
2022-12-06T08:34:59.705Z,99.99
2022-12-06T08:35:59.683Z,99.99
2022-12-06T08:37:03.372Z,99.99
2022-12-06T08:37:59.663Z,99.99
2022-12-06T08:38:59.638Z,99.99
2022-12-06T08:40:00.092Z,99.99
2022-12-06T08:40:59.613Z,99.99
2022-12-06T08:41:59.600Z,99.99
2022-12-06T08:42:59.594Z,99.99
2022-12-06T08:43:59.583Z,99.99
2022-12-06T08:44:59.568Z,99.99
2022-12-06T08:45:59.667Z,99.99
2022-12-06T08:46:59.535Z,99.99
2022-12-06T08:47:59.529Z,99.99
2022-12-06T08:48:59.521Z,99.99
2022-12-06T08:49:59.821Z,99.99
2022-12-06T08:50:59.489Z,99.99
2022-12-06T08:51:59.505Z,99.99
2022-12-06T08:52:59.467Z,99.99
2022-12-06T08:53:59.447Z,99.99
2022-12-06T08:54:59.441Z,99.99
2022-12-06T08:56:02.764Z,99.99
2022-12-06T08:56:59.415Z,99.99
2022-12-06T08:57:59.401Z,99.99
2022-12-06T08:58:59.382Z,99.99
2022-12-06T08:59:59.743Z,99.99
2022-12-06T09:00:59.378Z,99.99
2022-12-06T09:01:59.364Z,99.99
2022-12-06T09:02:59.330Z,99.99
2022-12-06T09:03:59.460Z,99.99
2022-12-06T09:04:59.387Z,99.99
2022-12-06T09:05:59.305Z,99.99
2022-12-06T09:06:59.279Z,99.99
2022-12-06T09:07:59.327Z,99.99
2022-12-06T09:08:59.264Z,99.99
2022-12-06T09:09:59.647Z,99.99
2022-12-06T09:10:59.236Z,99.99
2022-12-06T09:11:59.248Z,99.99
2022-12-06T09:12:59.206Z,99.99
2022-12-06T09:13:59.192Z,99.99
2022-12-06T09:14:59.187Z,99.99
2022-12-06T09:15:59.223Z,99.99
2022-12-06T09:16:59.164Z,99.99
2022-12-06T09:17:59.156Z,99.99
2022-12-06T09:18:59.141Z,99.99
2022-12-06T09:20:05.314Z,99.99
2022-12-06T09:21:00.140Z,99.99
2022-12-06T09:21:59.097Z,99.99
2022-12-06T09:22:59.085Z,99.99
2022-12-06T09:23:59.072Z,99.99
2022-12-06T09:24:59.050Z,99.99
2022-12-06T09:25:59.052Z,99.99
2022-12-06T09:26:59.027Z,99.99
2022-12-06T09:27:59.039Z,99.99
2022-12-06T09:28:59.006Z,99.99
2022-12-06T09:29:59.427Z,99.99
2022-12-06T09:30:59.082Z,99.99
2022-12-06T09:31:58.966Z,99.99
2022-12-06T09:32:58.968Z,99.99
2022-12-06T09:33:58.942Z,99.99
2022-12-06T09:34:58.920Z,99.99
2022-12-06T09:35:58.914Z,99.99
2022-12-06T09:36:58.906Z,99.99
2022-12-06T09:37:58.898Z,99.99
2022-12-06T09:38:58.876Z,99.99
2022-12-06T09:39:59.318Z,99.99
2022-12-06T09:40:58.852Z,99.99
2022-12-06T09:41:58.834Z,99.99
2022-12-06T09:42:58.827Z,99.99
2022-12-06T09:43:58.853Z,99.99
2022-12-06T09:44:58.800Z,99.99
2022-12-06T09:45:58.827Z,99.99
2022-12-06T09:46:58.826Z,99.99
2022-12-06T09:47:58.757Z,99.99
2022-12-06T09:48:58.753Z,99.99
2022-12-06T09:49:59.004Z,99.99
2022-12-06T09:50:58.726Z,99.99
2022-12-06T09:51:58.715Z,99.99
2022-12-06T09:52:58.695Z,99.99
2022-12-06T09:53:58.692Z,99.99
2022-12-06T09:55:00.247Z,99.99
2022-12-06T09:55:58.658Z,99.99
2022-12-06T09:56:58.645Z,99.99
2022-12-06T09:57:58.633Z,99.99
2022-12-06T09:58:58.618Z,99.99
2022-12-06T09:59:58.912Z,99.99
2022-12-06T10:00:58.635Z,99.99
2022-12-06T10:01:58.656Z,99.99
2022-12-06T10:02:58.631Z,99.99
2022-12-06T10:03:58.553Z,99.99
2022-12-06T10:04:58.545Z,99.99
2022-12-06T10:05:58.526Z,99.99
2022-12-06T10:06:58.520Z,99.99
2022-12-06T10:07:58.784Z,99.99
2022-12-06T10:08:58.641Z,99.99
2022-12-06T10:09:58.959Z,99.99
2022-12-06T10:11:00.677Z,99.99
2022-12-06T10:11:58.451Z,99.99
2022-12-06T10:12:58.431Z,99.99
2022-12-06T10:13:58.424Z,99.93
2022-12-06T10:14:58.424Z,99.35
2022-12-06T10:15:58.532Z,98.62
2022-12-06T10:16:58.396Z,98.20
2022-12-06T10:17:58.383Z,98.10
2022-12-06T10:18:58.357Z,98.16
2022-12-06T10:19:58.691Z,98.36
2022-12-06T10:20:58.338Z,98.38
2022-12-06T10:21:58.330Z,97.88
2022-12-06T10:22:58.313Z,96.00
2022-12-06T10:24:01.854Z,95.54
2022-12-06T10:24:58.494Z,95.04
2022-12-06T10:25:58.272Z,92.41
2022-12-06T10:26:58.260Z,91.64
2022-12-06T10:27:58.249Z,89.56
2022-12-06T10:28:58.233Z,89.52
2022-12-06T10:29:58.686Z,89.75
2022-12-06T10:30:58.276Z,87.02
2022-12-06T10:31:58.331Z,86.09
2022-12-06T10:32:58.189Z,85.16
2022-12-06T10:33:58.186Z,85.09
2022-12-06T10:34:58.157Z,86.09
2022-12-06T10:35:58.154Z,85.16
2022-12-06T10:36:58.130Z,84.91
2022-12-06T10:37:58.121Z,83.81
2022-12-06T10:38:58.113Z,85.36
2022-12-06T10:39:58.088Z,85.26
2022-12-06T10:40:58.080Z,84.74
2022-12-06T10:41:58.069Z,84.53
2022-12-06T10:42:58.055Z,85.16
2022-12-06T10:43:58.037Z,85.19
2022-12-06T10:44:58.037Z,85.27
2022-12-06T10:45:58.017Z,85.96
2022-12-06T10:46:58.149Z,86.17
2022-12-06T10:47:58.020Z,85.48
2022-12-06T10:48:57.984Z,86.31
2022-12-06T10:49:58.098Z,87.66
2022-12-06T10:50:57.957Z,87.66
2022-12-06T10:51:57.934Z,88.39
2022-12-06T10:53:01.815Z,89.62
2022-12-06T10:53:57.909Z,89.48
2022-12-06T10:54:57.904Z,89.28
2022-12-06T10:55:57.883Z,89.00
2022-12-06T10:56:57.870Z,89.17
2022-12-06T10:57:57.859Z,88.86
2022-12-06T10:58:57.848Z,88.34
2022-12-06T11:00:02.968Z,88.45
2022-12-06T11:00:57.839Z,88.55
2022-12-06T11:01:57.896Z,88.86
2022-12-06T11:02:57.805Z,88.90
2022-12-06T11:03:57.800Z,88.69
2022-12-06T11:04:57.774Z,88.79
2022-12-06T11:05:57.752Z,89.11
2022-12-06T11:06:57.740Z,89.21
2022-12-06T11:07:57.797Z,88.79
2022-12-06T11:08:57.719Z,88.48
2022-12-06T11:09:58.000Z,89.21
2022-12-06T11:10:57.685Z,89.58
2022-12-06T11:11:57.687Z,89.69
2022-12-06T11:12:57.658Z,89.44
2022-12-06T11:13:57.674Z,88.30
2022-12-06T11:14:57.647Z,88.09
2022-12-06T11:15:57.681Z,87.64
2022-12-06T11:16:57.616Z,87.23
2022-12-06T11:18:02.301Z,86.60
2022-12-06T11:18:57.592Z,85.53
2022-12-06T11:19:57.926Z,84.91
2022-12-06T11:20:57.569Z,84.36
2022-12-06T11:21:57.546Z,84.15
2022-12-06T11:22:57.534Z,83.42
2022-12-06T11:23:57.520Z,83.53
2022-12-06T11:24:57.516Z,84.05
2022-12-06T11:25:57.498Z,84.36
2022-12-06T11:26:57.480Z,83.32
2022-12-06T11:27:57.473Z,82.60
2022-12-06T11:28:57.461Z,81.87
2022-12-06T11:29:57.555Z,82.18
2022-12-06T11:30:57.440Z,82.39
2022-12-06T11:31:57.571Z,82.80
2022-12-06T11:32:57.406Z,81.70
2022-12-06T11:33:57.400Z,82.64
2022-12-06T11:34:57.403Z,83.87
2022-12-06T11:35:57.397Z,84.60
2022-12-06T11:37:00.361Z,83.09
2022-12-06T11:37:57.352Z,84.22
2022-12-06T11:38:57.333Z,85.26
2022-12-06T11:39:57.445Z,85.47
2022-12-06T11:40:57.311Z,84.84
2022-12-06T11:41:57.312Z,83.64
2022-12-06T11:42:57.290Z,84.58
2022-12-06T11:43:57.268Z,84.68
2022-12-06T11:44:57.267Z,85.24
2022-12-06T11:45:57.247Z,86.37
2022-12-06T11:46:57.375Z,86.07
2022-12-06T11:47:57.218Z,85.65
2022-12-06T11:48:57.210Z,84.82
2022-12-06T11:49:58.669Z,85.13
2022-12-06T11:50:57.187Z,85.13
2022-12-06T11:51:57.196Z,85.24
2022-12-06T11:52:57.159Z,85.06
2022-12-06T11:53:57.153Z,85.48
2022-12-06T11:54:57.259Z,85.96
2022-12-06T11:55:57.119Z,86.17
2022-12-06T11:56:57.113Z,86.17
2022-12-06T11:57:57.102Z,85.75
2022-12-06T11:58:57.096Z,85.96
2022-12-06T11:59:57.401Z,86.07
2022-12-06T12:00:57.072Z,87.82
2022-12-06T12:01:57.112Z,88.76
2022-12-06T12:02:57.084Z,89.17
2022-12-06T12:03:57.032Z,88.55
2022-12-06T12:04:57.071Z,88.13
2022-12-06T12:05:57.003Z,87.99
2022-12-06T12:06:56.997Z,87.99
2022-12-06T12:07:57.050Z,87.37
2022-12-06T12:08:56.967Z,86.23
2022-12-06T12:09:56.958Z,87.10
2022-12-06T12:10:56.942Z,87.82
2022-12-06T12:11:56.929Z,86.99
2022-12-06T12:12:56.920Z,87.10
2022-12-06T12:13:56.909Z,86.89
2022-12-06T12:14:56.895Z,87.78
2022-12-06T12:15:56.891Z,87.78
2022-12-06T12:16:56.944Z,87.30
2022-12-06T12:17:56.855Z,87.68
2022-12-06T12:18:56.843Z,87.10
2022-12-06T12:19:56.825Z,87.62
2022-12-06T12:20:56.814Z,88.13
2022-12-06T12:21:56.801Z,88.34
2022-12-06T12:22:56.803Z,88.55
2022-12-06T12:23:56.829Z,88.65
2022-12-06T12:25:17.892Z,88.40
2022-12-06T12:25:57.788Z,88.34
2022-12-06T12:26:56.740Z,88.30
2022-12-06T12:27:56.724Z,87.51
2022-12-06T12:28:56.710Z,86.89
2022-12-06T12:29:56.706Z,87.06
2022-12-06T12:30:56.682Z,87.78
2022-12-06T12:31:56.764Z,88.61
2022-12-06T12:32:56.651Z,88.71
2022-12-06T12:33:56.648Z,88.40
2022-12-06T12:34:56.633Z,87.68
2022-12-06T12:35:56.621Z,87.37
2022-12-06T12:36:56.613Z,87.20
2022-12-06T12:37:56.601Z,87.68
2022-12-06T12:38:56.585Z,88.51
2022-12-06T12:39:56.598Z,89.13
2022-12-06T12:40:56.566Z,89.34
2022-12-06T12:41:56.544Z,89.13
2022-12-06T12:42:56.529Z,87.37
2022-12-06T12:44:13.851Z,87.37
2022-12-06T12:44:57.683Z,86.85
2022-12-06T12:46:01.160Z,86.75
2022-12-06T12:46:57.529Z,86.23
2022-12-06T12:47:56.475Z,85.92
2022-12-06T12:48:56.465Z,84.99
2022-12-06T12:49:56.453Z,85.30
2022-12-06T12:50:56.428Z,86.96
2022-12-06T12:51:56.417Z,86.85